sensor_id;sensor_type;location;lat;lon;timestamp;temperature;humidity
11961;DHT22;6040;49.358;11.140;2023-05-17T00:00:52;6.90;99.90
11961;DHT22;6040;49.358;11.140;2023-05-17T00:03:19;6.90;99.90
11961;DHT22;6040;49.358;11.140;2023-05-17T00:05:46;6.90;99.90
11961;DHT22;6040;49.358;11.140;2023-05-17T00:08:15;7.40;99.90
11961;DHT22;6040;49.358;11.140;2023-05-17T00:10:42;6.80;99.90
11961;DHT22;6040;49.358;11.140;2023-05-17T00:13:09;6.80;99.90
11961;DHT22;6040;49.358;11.140;2023-05-17T00:15:36;6.80;99.90
11961;DHT22;6040;49.358;11.140;2023-05-17T00:18:03;6.80;99.90
11961;DHT22;6040;49.358;11.140;2023-05-17T00:20:30;6.80;99.90
11961;DHT22;6040;49.358;11.140;2023-05-17T00:22:56;6.70;99.90
11961;DHT22;6040;49.358;11.140;2023-05-17T00:25:25;6.80;99.90
11961;DHT22;6040;49.358;11.140;2023-05-17T00:27:51;7.30;99.90
11961;DHT22;6040;49.358;11.140;2023-05-17T00:30:18;6.70;99.90
11961;DHT22;6040;49.358;11.140;2023-05-17T00:32:45;6.70;99.90
11961;DHT22;6040;49.358;11.140;2023-05-17T00:35:12;6.60;99.90
11961;DHT22;6040;49.358;11.140;2023-05-17T00:37:39;6.60;99.90
11961;DHT22;6040;49.358;11.140;2023-05-17T00:40:09;6.60;99.90
11961;DHT22;6040;49.358;11.140;2023-05-17T00:42:37;6.60;99.90
11961;DHT22;6040;49.358;11.140;2023-05-17T00:45:05;6.60;99.90
11961;DHT22;6040;49.358;11.140;2023-05-17T00:47:32;6.60;99.90
11961;DHT22;6040;49.358;11.140;2023-05-17T00:49:59;6.60;99.90
11961;DHT22;6040;49.358;11.140;2023-05-17T00:52:26;6.60;99.90
11961;DHT22;6040;49.358;11.140;2023-05-17T00:54:53;6.50;99.90
11961;DHT22;6040;49.358;11.140;2023-05-17T00:57:20;6.50;99.90
11961;DHT22;6040;49.358;11.140;2023-05-17T00:59:48;6.40;99.90
11961;DHT22;6040;49.358;11.140;2023-05-17T01:02:16;6.40;99.90
11961;DHT22;6040;49.358;11.140;2023-05-17T01:04:43;6.40;99.90
11961;DHT22;6040;49.358;11.140;2023-05-17T01:07:10;6.40;99.90
11961;DHT22;6040;49.358;11.140;2023-05-17T01:09:37;6.30;99.90
11961;DHT22;6040;49.358;11.140;2023-05-17T01:12:10;6.30;99.90
11961;DHT22;6040;49.358;11.140;2023-05-17T01:14:46;6.30;99.90
11961;DHT22;6040;49.358;11.140;2023-05-17T01:17:23;6.30;99.90
11961;DHT22;6040;49.358;11.140;2023-05-17T01:19:59;6.20;99.90
11961;DHT22;6040;49.358;11.140;2023-05-17T01:22:40;6.20;99.90
11961;DHT22;6040;49.358;11.140;2023-05-17T01:25:27;6.20;99.90
11961;DHT22;6040;49.358;11.140;2023-05-17T01:27:59;6.20;99.90
11961;DHT22;6040;49.358;11.140;2023-05-17T01:30:28;6.90;99.90
11961;DHT22;6040;49.358;11.140;2023-05-17T01:32:56;6.10;99.90
11961;DHT22;6040;49.358;11.140;2023-05-17T01:35:24;6.40;99.90
11961;DHT22;6040;49.358;11.140;2023-05-17T01:37:51;6.10;99.90
11961;DHT22;6040;49.358;11.140;2023-05-17T01:40:19;7.50;99.90
11961;DHT22;6040;49.358;11.140;2023-05-17T01:42:50;5.80;99.90
11961;DHT22;6040;49.358;11.140;2023-05-17T01:45:23;6.20;99.90
11961;DHT22;6040;49.358;11.140;2023-05-17T01:47:59;6.00;99.90
11961;DHT22;6040;49.358;11.140;2023-05-17T01:50:28;6.00;99.90
11961;DHT22;6040;49.358;11.140;2023-05-17T01:53:04;6.00;99.90
11961;DHT22;6040;49.358;11.140;2023-05-17T01:55:35;6.00;99.90
11961;DHT22;6040;49.358;11.140;2023-05-17T01:58:06;6.10;99.90
11961;DHT22;6040;49.358;11.140;2023-05-17T02:00:35;7.40;99.90
11961;DHT22;6040;49.358;11.140;2023-05-17T02:03:04;6.00;99.90
11961;DHT22;6040;49.358;11.140;2023-05-17T02:05:30;6.00;99.90
11961;DHT22;6040;49.358;11.140;2023-05-17T02:07:57;5.90;99.90
11961;DHT22;6040;49.358;11.140;2023-05-17T02:10:24;5.90;99.90
11961;DHT22;6040;49.358;11.140;2023-05-17T02:12:51;5.90;99.90
11961;DHT22;6040;49.358;11.140;2023-05-17T02:15:18;5.90;99.90
11961;DHT22;6040;49.358;11.140;2023-05-17T02:17:46;5.90;99.90
11961;DHT22;6040;49.358;11.140;2023-05-17T02:20:13;5.90;99.90
11961;DHT22;6040;49.358;11.140;2023-05-17T02:22:39;6.20;99.90
11961;DHT22;6040;49.358;11.140;2023-05-17T02:25:07;5.90;99.90
11961;DHT22;6040;49.358;11.140;2023-05-17T02:27:34;5.90;99.90
11961;DHT22;6040;49.358;11.140;2023-05-17T02:30:01;5.90;99.90
11961;DHT22;6040;49.358;11.140;2023-05-17T02:32:29;5.80;99.90
11961;DHT22;6040;49.358;11.140;2023-05-17T02:34:57;5.80;99.90
11961;DHT22;6040;49.358;11.140;2023-05-17T02:39:51;5.80;99.90
11961;DHT22;6040;49.358;11.140;2023-05-17T02:42:17;5.70;99.90
11961;DHT22;6040;49.358;11.140;2023-05-17T02:44:44;6.90;99.90
11961;DHT22;6040;49.358;11.140;2023-05-17T02:47:13;5.70;99.90
11961;DHT22;6040;49.358;11.140;2023-05-17T02:49:40;5.60;99.90
11961;DHT22;6040;49.358;11.140;2023-05-17T02:52:08;5.60;99.90
11961;DHT22;6040;49.358;11.140;2023-05-17T02:54:35;5.60;99.90
11961;DHT22;6040;49.358;11.140;2023-05-17T02:57:02;6.40;99.90
11961;DHT22;6040;49.358;11.140;2023-05-17T02:59:29;5.50;99.90
11961;DHT22;6040;49.358;11.140;2023-05-17T03:01:55;5.50;99.90
11961;DHT22;6040;49.358;11.140;2023-05-17T03:04:22;5.50;99.90
11961;DHT22;6040;49.358;11.140;2023-05-17T03:06:49;5.40;99.90
11961;DHT22;6040;49.358;11.140;2023-05-17T03:09:17;5.50;99.90
11961;DHT22;6040;49.358;11.140;2023-05-17T03:11:45;5.50;99.90
11961;DHT22;6040;49.358;11.140;2023-05-17T03:14:12;5.50;99.90
11961;DHT22;6040;49.358;11.140;2023-05-17T03:16:38;6.70;99.90
11961;DHT22;6040;49.358;11.140;2023-05-17T03:19:05;5.40;99.90
11961;DHT22;6040;49.358;11.140;2023-05-17T03:21:32;5.40;99.90
11961;DHT22;6040;49.358;11.140;2023-05-17T03:23:59;5.40;99.90
11961;DHT22;6040;49.358;11.140;2023-05-17T03:26:27;5.40;99.90
11961;DHT22;6040;49.358;11.140;2023-05-17T03:28:54;5.30;99.90
11961;DHT22;6040;49.358;11.140;2023-05-17T03:31:21;5.30;99.90
11961;DHT22;6040;49.358;11.140;2023-05-17T03:33:47;5.30;99.90
11961;DHT22;6040;49.358;11.140;2023-05-17T03:36:14;6.40;99.90
11961;DHT22;6040;49.358;11.140;2023-05-17T03:38:41;5.20;99.90
11961;DHT22;6040;49.358;11.140;2023-05-17T03:41:08;5.30;99.90
11961;DHT22;6040;49.358;11.140;2023-05-17T03:43:36;5.30;99.90
11961;DHT22;6040;49.358;11.140;2023-05-17T03:46:03;5.30;99.90
11961;DHT22;6040;49.358;11.140;2023-05-17T03:48:30;5.30;99.90
11961;DHT22;6040;49.358;11.140;2023-05-17T03:50:57;5.30;99.90
11961;DHT22;6040;49.358;11.140;2023-05-17T03:53:25;5.20;99.90
11961;DHT22;6040;49.358;11.140;2023-05-17T03:55:52;5.30;99.90
11961;DHT22;6040;49.358;11.140;2023-05-17T03:58:19;5.40;99.90
11961;DHT22;6040;49.358;11.140;2023-05-17T04:00:47;5.40;99.90
11961;DHT22;6040;49.358;11.140;2023-05-17T04:03:13;5.40;99.90
11961;DHT22;6040;49.358;11.140;2023-05-17T04:05:40;5.50;99.90
11961;DHT22;6040;49.358;11.140;2023-05-17T04:08:07;5.50;99.90
11961;DHT22;6040;49.358;11.140;2023-05-17T04:10:34;5.60;99.90
11961;DHT22;6040;49.358;11.140;2023-05-17T04:13:01;5.60;99.90
11961;DHT22;6040;49.358;11.140;2023-05-17T04:15:27;5.70;99.90
11961;DHT22;6040;49.358;11.140;2023-05-17T04:17:56;5.80;99.90
11961;DHT22;6040;49.358;11.140;2023-05-17T04:20:23;5.90;99.90
11961;DHT22;6040;49.358;11.140;2023-05-17T04:22:50;6.10;99.90
11961;DHT22;6040;49.358;11.140;2023-05-17T04:25:17;6.10;99.90
11961;DHT22;6040;49.358;11.140;2023-05-17T04:27:44;6.20;99.90
11961;DHT22;6040;49.358;11.140;2023-05-17T04:30:12;6.30;99.90
11961;DHT22;6040;49.358;11.140;2023-05-17T04:32:39;6.40;99.90
11961;DHT22;6040;49.358;11.140;2023-05-17T04:35:08;8.00;99.90
11961;DHT22;6040;49.358;11.140;2023-05-17T04:37:35;8.00;99.90
11961;DHT22;6040;49.358;11.140;2023-05-17T04:40:05;7.90;99.90
11961;DHT22;6040;49.358;11.140;2023-05-17T04:42:34;7.00;99.90
11961;DHT22;6040;49.358;11.140;2023-05-17T04:45:01;7.80;99.90
11961;DHT22;6040;49.358;11.140;2023-05-17T04:47:28;7.30;99.90
11961;DHT22;6040;49.358;11.140;2023-05-17T04:49:57;7.40;99.90
11961;DHT22;6040;49.358;11.140;2023-05-17T04:52:30;7.60;99.90
11961;DHT22;6040;49.358;11.140;2023-05-17T04:54:57;9.10;99.90
11961;DHT22;6040;49.358;11.140;2023-05-17T04:57:24;7.90;99.90
11961;DHT22;6040;49.358;11.140;2023-05-17T04:59:51;7.90;99.90
11961;DHT22;6040;49.358;11.140;2023-05-17T05:02:17;8.10;99.90
11961;DHT22;6040;49.358;11.140;2023-05-17T05:04:44;8.10;99.90
11961;DHT22;6040;49.358;11.140;2023-05-17T05:07:11;8.20;99.90
11961;DHT22;6040;49.358;11.140;2023-05-17T05:09:39;9.80;99.90
11961;DHT22;6040;49.358;11.140;2023-05-17T05:12:07;9.70;99.90
11961;DHT22;6040;49.358;11.140;2023-05-17T05:14:34;8.60;99.90
11961;DHT22;6040;49.358;11.140;2023-05-17T05:17:01;8.80;99.90
11961;DHT22;6040;49.358;11.140;2023-05-17T05:19:27;9.00;99.90
11961;DHT22;6040;49.358;11.140;2023-05-17T05:21:54;9.60;99.90
11961;DHT22;6040;49.358;11.140;2023-05-17T05:24:21;10.20;99.90
11961;DHT22;6040;49.358;11.140;2023-05-17T05:26:49;10.90;99.90
11961;DHT22;6040;49.358;11.140;2023-05-17T05:29:17;11.10;99.90
11961;DHT22;6040;49.358;11.140;2023-05-17T05:31:44;11.60;99.90
11961;DHT22;6040;49.358;11.140;2023-05-17T05:34:11;11.70;99.90
11961;DHT22;6040;49.358;11.140;2023-05-17T05:36:38;11.60;99.70
11961;DHT22;6040;49.358;11.140;2023-05-17T05:39:04;11.90;99.90
11961;DHT22;6040;49.358;11.140;2023-05-17T05:41:32;12.10;99.90
11961;DHT22;6040;49.358;11.140;2023-05-17T05:44:00;12.50;99.10
11961;DHT22;6040;49.358;11.140;2023-05-17T05:46:27;13.40;98.30
11961;DHT22;6040;49.358;11.140;2023-05-17T05:48:54;13.20;96.80
11961;DHT22;6040;49.358;11.140;2023-05-17T05:51:21;13.90;96.50
11961;DHT22;6040;49.358;11.140;2023-05-17T05:53:48;14.50;95.30
11961;DHT22;6040;49.358;11.140;2023-05-17T05:56:15;14.40;95.00
11961;DHT22;6040;49.358;11.140;2023-05-17T05:58:42;14.60;94.30
11961;DHT22;6040;49.358;11.140;2023-05-17T06:01:10;14.70;94.10
11961;DHT22;6040;49.358;11.140;2023-05-17T06:03:37;15.00;94.60
11961;DHT22;6040;49.358;11.140;2023-05-17T06:06:04;15.20;93.60
11961;DHT22;6040;49.358;11.140;2023-05-17T06:08:31;15.40;93.80
11961;DHT22;6040;49.358;11.140;2023-05-17T06:10:58;15.60;93.50
11961;DHT22;6040;49.358;11.140;2023-05-17T06:13:25;15.80;93.10
11961;DHT22;6040;49.358;11.140;2023-05-17T06:15:52;15.40;92.50
11961;DHT22;6040;49.358;11.140;2023-05-17T06:18:20;14.60;93.80
11961;DHT22;6040;49.358;11.140;2023-05-17T06:20:47;14.60;94.40
11961;DHT22;6040;49.358;11.140;2023-05-17T06:23:14;14.80;94.10
11961;DHT22;6040;49.358;11.140;2023-05-17T06:25:41;15.10;94.40
11961;DHT22;6040;49.358;11.140;2023-05-17T06:28:08;15.70;93.40
11961;DHT22;6040;49.358;11.140;2023-05-17T06:30:35;15.70;92.60
11961;DHT22;6040;49.358;11.140;2023-05-17T06:33:02;15.90;92.80
11961;DHT22;6040;49.358;11.140;2023-05-17T06:35:30;15.90;92.20
11961;DHT22;6040;49.358;11.140;2023-05-17T06:37:57;16.00;92.40
11961;DHT22;6040;49.358;11.140;2023-05-17T06:40:24;16.00;91.90
11961;DHT22;6040;49.358;11.140;2023-05-17T06:42:50;16.10;92.30
11961;DHT22;6040;49.358;11.140;2023-05-17T06:45:17;16.00;92.30
11961;DHT22;6040;49.358;11.140;2023-05-17T06:47:44;15.80;92.70
11961;DHT22;6040;49.358;11.140;2023-05-17T06:50:11;15.60;92.80
11961;DHT22;6040;49.358;11.140;2023-05-17T06:52:39;15.80;92.70
11961;DHT22;6040;49.358;11.140;2023-05-17T06:55:06;15.80;93.50
11961;DHT22;6040;49.358;11.140;2023-05-17T06:57:33;15.90;92.90
11961;DHT22;6040;49.358;11.140;2023-05-17T07:00:00;16.20;93.40
11961;DHT22;6040;49.358;11.140;2023-05-17T07:02:27;16.10;92.70
11961;DHT22;6040;49.358;11.140;2023-05-17T07:04:55;15.80;92.50
11961;DHT22;6040;49.358;11.140;2023-05-17T07:07:22;15.70;93.40
11961;DHT22;6040;49.358;11.140;2023-05-17T07:09:50;15.60;92.90
11961;DHT22;6040;49.358;11.140;2023-05-17T07:12:17;15.50;93.50
11961;DHT22;6040;49.358;11.140;2023-05-17T07:14:44;15.60;93.40
11961;DHT22;6040;49.358;11.140;2023-05-17T07:17:10;15.40;93.00
11961;DHT22;6040;49.358;11.140;2023-05-17T07:19:37;15.00;93.80
11961;DHT22;6040;49.358;11.140;2023-05-17T07:22:04;15.30;93.80
11961;DHT22;6040;49.358;11.140;2023-05-17T07:24:31;15.40;93.70
11961;DHT22;6040;49.358;11.140;2023-05-17T07:27:01;15.60;93.80
11961;DHT22;6040;49.358;11.140;2023-05-17T07:29:27;15.70;94.30
11961;DHT22;6040;49.358;11.140;2023-05-17T07:31:54;15.80;94.30
11961;DHT22;6040;49.358;11.140;2023-05-17T07:34:21;15.90;94.30
11961;DHT22;6040;49.358;11.140;2023-05-17T07:36:48;15.70;93.40
11961;DHT22;6040;49.358;11.140;2023-05-17T07:39:15;16.10;93.80
11961;DHT22;6040;49.358;11.140;2023-05-17T07:41:42;16.20;93.20
11961;DHT22;6040;49.358;11.140;2023-05-17T07:44:10;16.10;92.60
11961;DHT22;6040;49.358;11.140;2023-05-17T07:46:37;15.70;93.10
11961;DHT22;6040;49.358;11.140;2023-05-17T07:49:03;15.60;93.30
11961;DHT22;6040;49.358;11.140;2023-05-17T07:51:30;15.40;93.60
11961;DHT22;6040;49.358;11.140;2023-05-17T07:53:57;15.40;93.50
11961;DHT22;6040;49.358;11.140;2023-05-17T07:56:24;15.40;93.60
11961;DHT22;6040;49.358;11.140;2023-05-17T07:58:51;15.50;94.00
11961;DHT22;6040;49.358;11.140;2023-05-17T08:01:19;15.40;93.00
11961;DHT22;6040;49.358;11.140;2023-05-17T08:03:47;15.50;93.10
11961;DHT22;6040;49.358;11.140;2023-05-17T08:06:14;15.70;93.40
11961;DHT22;6040;49.358;11.140;2023-05-17T08:08:41;16.00;94.00
11961;DHT22;6040;49.358;11.140;2023-05-17T08:11:09;16.30;93.00
11961;DHT22;6040;49.358;11.140;2023-05-17T08:13:36;15.90;92.20
11961;DHT22;6040;49.358;11.140;2023-05-17T08:16:03;16.20;92.80
11961;DHT22;6040;49.358;11.140;2023-05-17T08:18:34;16.20;92.10
11961;DHT22;6040;49.358;11.140;2023-05-17T08:21:02;16.40;93.40
11961;DHT22;6040;49.358;11.140;2023-05-17T08:23:29;16.60;92.00
11961;DHT22;6040;49.358;11.140;2023-05-17T08:25:55;16.10;91.20
11961;DHT22;6040;49.358;11.140;2023-05-17T08:28:22;15.90;92.60
11961;DHT22;6040;49.358;11.140;2023-05-17T08:30:49;16.10;92.60
11961;DHT22;6040;49.358;11.140;2023-05-17T08:33:16;16.00;92.10
11961;DHT22;6040;49.358;11.140;2023-05-17T08:35:46;14.50;91.80
11961;DHT22;6040;49.358;11.140;2023-05-17T08:38:13;16.40;92.30
11961;DHT22;6040;49.358;11.140;2023-05-17T08:40:40;16.30;90.90
11961;DHT22;6040;49.358;11.140;2023-05-17T08:43:08;15.90;91.70
11961;DHT22;6040;49.358;11.140;2023-05-17T08:45:38;15.70;92.10
11961;DHT22;6040;49.358;11.140;2023-05-17T08:48:05;15.90;91.90
11961;DHT22;6040;49.358;11.140;2023-05-17T08:50:32;15.90;91.20
11961;DHT22;6040;49.358;11.140;2023-05-17T08:53:01;16.00;91.50
11961;DHT22;6040;49.358;11.140;2023-05-17T08:55:30;16.20;92.00
11961;DHT22;6040;49.358;11.140;2023-05-17T08:57:58;16.00;90.80
11961;DHT22;6040;49.358;11.140;2023-05-17T09:00:26;15.70;91.20
11961;DHT22;6040;49.358;11.140;2023-05-17T09:02:54;15.70;92.30
11961;DHT22;6040;49.358;11.140;2023-05-17T09:05:20;15.60;91.50
11961;DHT22;6040;49.358;11.140;2023-05-17T09:07:48;15.30;91.70
11961;DHT22;6040;49.358;11.140;2023-05-17T09:10:16;15.40;92.50
11961;DHT22;6040;49.358;11.140;2023-05-17T09:12:43;15.40;92.40
11961;DHT22;6040;49.358;11.140;2023-05-17T09:15:15;15.40;92.40
11961;DHT22;6040;49.358;11.140;2023-05-17T09:17:42;15.30;91.60
11961;DHT22;6040;49.358;11.140;2023-05-17T09:20:09;15.40;92.50
11961;DHT22;6040;49.358;11.140;2023-05-17T09:22:36;15.30;92.40
11961;DHT22;6040;49.358;11.140;2023-05-17T09:25:04;15.10;92.40
11961;DHT22;6040;49.358;11.140;2023-05-17T09:27:32;15.10;93.00
11961;DHT22;6040;49.358;11.140;2023-05-17T09:29:59;14.80;92.80
11961;DHT22;6040;49.358;11.140;2023-05-17T09:32:26;14.50;93.20
11961;DHT22;6040;49.358;11.140;2023-05-17T09:34:53;14.50;93.90
11961;DHT22;6040;49.358;11.140;2023-05-17T09:37:22;14.30;93.20
11961;DHT22;6040;49.358;11.140;2023-05-17T09:39:50;14.20;93.90
11961;DHT22;6040;49.358;11.140;2023-05-17T09:42:17;14.10;93.50
11961;DHT22;6040;49.358;11.140;2023-05-17T09:44:49;13.90;93.90
11961;DHT22;6040;49.358;11.140;2023-05-17T09:47:22;15.30;94.40
11961;DHT22;6040;49.358;11.140;2023-05-17T09:49:49;14.10;94.20
11961;DHT22;6040;49.358;11.140;2023-05-17T09:52:17;15.70;94.50
11961;DHT22;6040;49.358;11.140;2023-05-17T09:54:50;14.00;94.40
11961;DHT22;6040;49.358;11.140;2023-05-17T09:57:18;14.00;94.40
11961;DHT22;6040;49.358;11.140;2023-05-17T09:59:46;14.20;94.60
11961;DHT22;6040;49.358;11.140;2023-05-17T10:02:19;14.20;94.50
11961;DHT22;6040;49.358;11.140;2023-05-17T10:04:48;14.30;94.70
11961;DHT22;6040;49.358;11.140;2023-05-17T10:07:17;15.80;94.10
11961;DHT22;6040;49.358;11.140;2023-05-17T10:09:46;14.10;93.80
11961;DHT22;6040;49.358;11.140;2023-05-17T10:12:16;14.00;93.50
11961;DHT22;6040;49.358;11.140;2023-05-17T10:14:45;13.90;94.20
11961;DHT22;6040;49.358;11.140;2023-05-17T10:17:13;14.80;94.60
11961;DHT22;6040;49.358;11.140;2023-05-17T10:19:41;13.70;94.50
11961;DHT22;6040;49.358;11.140;2023-05-17T10:22:08;13.70;95.00
11961;DHT22;6040;49.358;11.140;2023-05-17T10:24:35;15.00;95.00
11961;DHT22;6040;49.358;11.140;2023-05-17T10:27:04;13.90;94.90
11961;DHT22;6040;49.358;11.140;2023-05-17T10:29:32;13.70;95.40
11961;DHT22;6040;49.358;11.140;2023-05-17T10:32:03;13.60;95.00
11961;DHT22;6040;49.358;11.140;2023-05-17T10:34:33;13.80;95.40
11961;DHT22;6040;49.358;11.140;2023-05-17T10:37:01;13.90;95.40
11961;DHT22;6040;49.358;11.140;2023-05-17T10:39:29;14.00;94.30
11961;DHT22;6040;49.358;11.140;2023-05-17T10:42:00;14.00;94.50
11961;DHT22;6040;49.358;11.140;2023-05-17T10:44:30;14.20;94.80
11961;DHT22;6040;49.358;11.140;2023-05-17T10:46:58;14.30;94.50
11961;DHT22;6040;49.358;11.140;2023-05-17T10:49:29;14.40;93.80
11961;DHT22;6040;49.358;11.140;2023-05-17T10:51:57;14.30;93.70
11961;DHT22;6040;49.358;11.140;2023-05-17T10:54:33;14.30;93.90
11961;DHT22;6040;49.358;11.140;2023-05-17T10:57:03;14.00;93.70
11961;DHT22;6040;49.358;11.140;2023-05-17T10:59:30;14.00;93.90
11961;DHT22;6040;49.358;11.140;2023-05-17T11:01:59;14.10;94.40
11961;DHT22;6040;49.358;11.140;2023-05-17T11:04:33;14.10;94.50
11961;DHT22;6040;49.358;11.140;2023-05-17T11:07:20;14.20;94.30
11961;DHT22;6040;49.358;11.140;2023-05-17T11:09:51;14.20;94.20
11961;DHT22;6040;49.358;11.140;2023-05-17T11:12:28;14.20;94.60
11961;DHT22;6040;49.358;11.140;2023-05-17T11:14:55;14.00;93.70
11961;DHT22;6040;49.358;11.140;2023-05-17T11:17:24;15.90;94.90
11961;DHT22;6040;49.358;11.140;2023-05-17T11:20:00;13.60;95.00
11961;DHT22;6040;49.358;11.140;2023-05-17T11:22:33;13.50;94.80
11961;DHT22;6040;49.358;11.140;2023-05-17T11:25:05;13.50;95.90
11961;DHT22;6040;49.358;11.140;2023-05-17T11:27:36;13.60;95.50
11961;DHT22;6040;49.358;11.140;2023-05-17T11:30:15;13.70;95.40
11961;DHT22;6040;49.358;11.140;2023-05-17T11:32:46;13.60;95.00
11961;DHT22;6040;49.358;11.140;2023-05-17T11:35:16;14.60;95.70
11961;DHT22;6040;49.358;11.140;2023-05-17T11:37:44;13.70;95.30
11961;DHT22;6040;49.358;11.140;2023-05-17T11:40:12;13.70;95.30
11961;DHT22;6040;49.358;11.140;2023-05-17T11:42:40;13.60;95.10
11961;DHT22;6040;49.358;11.140;2023-05-17T11:45:07;13.50;95.50
11961;DHT22;6040;49.358;11.140;2023-05-17T11:47:38;13.60;95.60
11961;DHT22;6040;49.358;11.140;2023-05-17T11:50:07;13.60;95.60
11961;DHT22;6040;49.358;11.140;2023-05-17T11:52:39;13.50;95.70
11961;DHT22;6040;49.358;11.140;2023-05-17T11:55:06;13.40;95.60
11961;DHT22;6040;49.358;11.140;2023-05-17T11:57:36;13.30;95.70
11961;DHT22;6040;49.358;11.140;2023-05-17T12:00:05;13.30;95.90
11961;DHT22;6040;49.358;11.140;2023-05-17T12:02:32;13.30;96.00
11961;DHT22;6040;49.358;11.140;2023-05-17T12:04:59;13.30;96.40
11961;DHT22;6040;49.358;11.140;2023-05-17T12:07:26;13.30;96.30
11961;DHT22;6040;49.358;11.140;2023-05-17T12:09:55;13.50;96.30
11961;DHT22;6040;49.358;11.140;2023-05-17T12:12:22;13.30;95.90
11961;DHT22;6040;49.358;11.140;2023-05-17T12:14:49;13.40;96.10
11961;DHT22;6040;49.358;11.140;2023-05-17T12:17:23;13.40;96.10
11961;DHT22;6040;49.358;11.140;2023-05-17T12:19:54;13.30;96.00
11961;DHT22;6040;49.358;11.140;2023-05-17T12:22:21;13.20;96.10
11961;DHT22;6040;49.358;11.140;2023-05-17T12:24:47;12.90;96.20
11961;DHT22;6040;49.358;11.140;2023-05-17T12:27:24;13.70;96.80
11961;DHT22;6040;49.358;11.140;2023-05-17T12:29:51;12.70;96.90
11961;DHT22;6040;49.358;11.140;2023-05-17T12:32:18;14.00;97.60
11961;DHT22;6040;49.358;11.140;2023-05-17T12:34:45;12.90;97.40
11961;DHT22;6040;49.358;11.140;2023-05-17T12:37:13;13.00;97.60
11961;DHT22;6040;49.358;11.140;2023-05-17T12:39:43;13.00;97.00
11961;DHT22;6040;49.358;11.140;2023-05-17T12:42:10;13.10;96.90
11961;DHT22;6040;49.358;11.140;2023-05-17T12:44:38;13.30;97.00
11961;DHT22;6040;49.358;11.140;2023-05-17T12:47:05;13.20;96.80
11961;DHT22;6040;49.358;11.140;2023-05-17T12:49:37;13.40;96.90
11961;DHT22;6040;49.358;11.140;2023-05-17T12:52:05;13.40;96.20
11961;DHT22;6040;49.358;11.140;2023-05-17T12:54:32;13.50;96.60
11961;DHT22;6040;49.358;11.140;2023-05-17T12:57:08;13.40;96.30
11961;DHT22;6040;49.358;11.140;2023-05-17T12:59:46;14.30;96.80
11961;DHT22;6040;49.358;11.140;2023-05-17T13:02:14;13.50;96.00
11961;DHT22;6040;49.358;11.140;2023-05-17T13:04:41;13.50;96.00
11961;DHT22;6040;49.358;11.140;2023-05-17T13:07:08;14.20;96.00
11961;DHT22;6040;49.358;11.140;2023-05-17T13:09:45;13.50;96.40
11961;DHT22;6040;49.358;11.140;2023-05-17T13:12:18;13.50;96.20
11961;DHT22;6040;49.358;11.140;2023-05-17T13:14:48;13.50;96.30
11961;DHT22;6040;49.358;11.140;2023-05-17T13:17:17;13.50;96.40
11961;DHT22;6040;49.358;11.140;2023-05-17T13:19:45;13.60;96.10
11961;DHT22;6040;49.358;11.140;2023-05-17T13:22:12;13.60;96.10
11961;DHT22;6040;49.358;11.140;2023-05-17T13:24:40;13.60;96.30
11961;DHT22;6040;49.358;11.140;2023-05-17T13:27:07;13.40;95.40
11961;DHT22;6040;49.358;11.140;2023-05-17T13:29:36;13.40;95.70
11961;DHT22;6040;49.358;11.140;2023-05-17T13:32:06;13.40;96.20
11961;DHT22;6040;49.358;11.140;2023-05-17T13:34:34;13.40;96.90
11961;DHT22;6040;49.358;11.140;2023-05-17T13:37:01;13.50;96.80
11961;DHT22;6040;49.358;11.140;2023-05-17T13:39:28;13.50;95.60
11961;DHT22;6040;49.358;11.140;2023-05-17T13:41:55;13.50;96.00
11961;DHT22;6040;49.358;11.140;2023-05-17T13:44:22;13.60;96.20
11961;DHT22;6040;49.358;11.140;2023-05-17T13:46:49;13.70;97.00
11961;DHT22;6040;49.358;11.140;2023-05-17T13:49:17;13.60;96.40
11961;DHT22;6040;49.358;11.140;2023-05-17T13:51:44;13.70;96.30
11961;DHT22;6040;49.358;11.140;2023-05-17T13:54:11;13.70;95.90
11961;DHT22;6040;49.358;11.140;2023-05-17T13:56:37;13.80;95.80
11961;DHT22;6040;49.358;11.140;2023-05-17T13:59:04;13.80;95.50
11961;DHT22;6040;49.358;11.140;2023-05-17T14:01:31;13.80;96.20
11961;DHT22;6040;49.358;11.140;2023-05-17T14:03:58;13.90;96.10
11961;DHT22;6040;49.358;11.140;2023-05-17T14:06:26;13.80;95.20
11961;DHT22;6040;49.358;11.140;2023-05-17T14:08:53;13.80;95.80
11961;DHT22;6040;49.358;11.140;2023-05-17T14:11:22;14.40;96.70
11961;DHT22;6040;49.358;11.140;2023-05-17T14:13:48;13.80;95.90
11961;DHT22;6040;49.358;11.140;2023-05-17T14:16:15;13.80;96.50
11961;DHT22;6040;49.358;11.140;2023-05-17T14:18:42;13.80;95.70
11961;DHT22;6040;49.358;11.140;2023-05-17T14:21:10;13.80;95.90
11961;DHT22;6040;49.358;11.140;2023-05-17T14:23:38;16.30;96.30
11961;DHT22;6040;49.358;11.140;2023-05-17T14:26:05;14.00;95.60
11961;DHT22;6040;49.358;11.140;2023-05-17T14:28:32;14.10;95.30
11961;DHT22;6040;49.358;11.140;2023-05-17T14:31:02;14.10;95.10
11961;DHT22;6040;49.358;11.140;2023-05-17T14:33:29;14.20;96.00
11961;DHT22;6040;49.358;11.140;2023-05-17T14:35:56;14.20;95.70
11961;DHT22;6040;49.358;11.140;2023-05-17T14:38:22;14.40;94.90
11961;DHT22;6040;49.358;11.140;2023-05-17T14:40:51;14.20;94.60
11961;DHT22;6040;49.358;11.140;2023-05-17T14:43:18;14.20;95.30
11961;DHT22;6040;49.358;11.140;2023-05-17T14:45:45;14.20;95.30
11961;DHT22;6040;49.358;11.140;2023-05-17T14:48:12;14.30;95.60
11961;DHT22;6040;49.358;11.140;2023-05-17T14:50:39;14.30;95.40
11961;DHT22;6040;49.358;11.140;2023-05-17T14:53:06;14.10;95.10
11961;DHT22;6040;49.358;11.140;2023-05-17T14:55:32;14.20;94.90
11961;DHT22;6040;49.358;11.140;2023-05-17T14:58:01;14.10;95.50
11961;DHT22;6040;49.358;11.140;2023-05-17T15:00:28;14.20;94.80
11961;DHT22;6040;49.358;11.140;2023-05-17T15:02:55;14.20;94.80
11961;DHT22;6040;49.358;11.140;2023-05-17T15:05:22;14.40;95.10
11961;DHT22;6040;49.358;11.140;2023-05-17T15:07:50;14.70;94.40
11961;DHT22;6040;49.358;11.140;2023-05-17T15:10:17;14.70;94.70
11961;DHT22;6040;49.358;11.140;2023-05-17T15:12:43;14.80;94.70
11961;DHT22;6040;49.358;11.140;2023-05-17T15:15:13;14.80;94.00
11961;DHT22;6040;49.358;11.140;2023-05-17T15:17:40;14.90;93.50
11961;DHT22;6040;49.358;11.140;2023-05-17T15:20:08;14.80;93.30
11961;DHT22;6040;49.358;11.140;2023-05-17T15:22:35;14.80;93.00
11961;DHT22;6040;49.358;11.140;2023-05-17T15:25:03;14.70;93.60
11961;DHT22;6040;49.358;11.140;2023-05-17T15:27:30;14.70;93.10
11961;DHT22;6040;49.358;11.140;2023-05-17T15:29:57;14.80;93.00
11961;DHT22;6040;49.358;11.140;2023-05-17T15:32:25;14.80;93.00
11961;DHT22;6040;49.358;11.140;2023-05-17T15:34:52;15.00;93.20
11961;DHT22;6040;49.358;11.140;2023-05-17T15:37:19;15.90;93.20
11961;DHT22;6040;49.358;11.140;2023-05-17T15:39:46;15.00;92.60
11961;DHT22;6040;49.358;11.140;2023-05-17T15:42:13;14.90;92.10